sensor_id;sensor_type;location;lat;lon;timestamp;pressure;altitude;pressure_sealevel;temperature;humidity
13486;BME280;6815;59.336;17.998;2023-04-28T00:01:36;52192.97;;;-145.37;80.24
13486;BME280;6815;59.336;17.998;2023-04-28T00:04:02;52133.06;;;-145.37;80.87
13486;BME280;6815;59.336;17.998;2023-04-28T00:06:29;52157.03;;;-145.37;82.08
13486;BME280;6815;59.336;17.998;2023-04-28T00:08:55;52161.03;;;-145.37;82.42
13486;BME280;6815;59.336;17.998;2023-04-28T00:11:20;52177.00;;;-145.37;82.18
13486;BME280;6815;59.336;17.998;2023-04-28T00:13:45;52163.00;;;-145.37;82.87
13486;BME280;6815;59.336;17.998;2023-04-28T00:16:11;52184.97;;;-145.37;80.80
13486;BME280;6815;59.336;17.998;2023-04-28T00:18:36;52196.94;;;-145.37;80.33
13486;BME280;6815;59.336;17.998;2023-04-28T00:21:02;52115.09;;;-145.37;82.30
13486;BME280;6815;59.336;17.998;2023-04-28T00:23:27;52173.00;;;-145.37;81.74
13486;BME280;6815;59.336;17.998;2023-04-28T00:25:54;52177.00;;;-145.37;82.19
13486;BME280;6815;59.336;17.998;2023-04-28T00:28:21;52151.03;;;-145.37;83.05
13486;BME280;6815;59.336;17.998;2023-04-28T00:30:47;52163.00;;;-145.37;83.19
13486;BME280;6815;59.336;17.998;2023-04-28T00:33:13;52175.00;;;-145.37;82.20
13486;BME280;6815;59.336;17.998;2023-04-28T00:35:39;52188.97;;;-145.37;82.16
13486;BME280;6815;59.336;17.998;2023-04-28T00:38:06;52178.97;;;-145.37;83.75
13486;BME280;6815;59.336;17.998;2023-04-28T00:40:32;52155.03;;;-145.37;83.15
13486;BME280;6815;59.336;17.998;2023-04-28T00:42:59;52153.03;;;-145.37;83.43
13486;BME280;6815;59.336;17.998;2023-04-28T00:45:25;52165.00;;;-145.37;81.30
13486;BME280;6815;59.336;17.998;2023-04-28T00:47:51;52153.03;;;-145.37;82.24
13486;BME280;6815;59.336;17.998;2023-04-28T00:50:17;52169.00;;;-145.37;81.77
13486;BME280;6815;59.336;17.998;2023-04-28T00:52:42;52175.00;;;-145.37;82.50
13486;BME280;6815;59.336;17.998;2023-04-28T00:55:08;52163.00;;;-145.37;81.54
13486;BME280;6815;59.336;17.998;2023-04-28T00:57:35;52127.09;;;-145.37;82.04
13486;BME280;6815;59.336;17.998;2023-04-28T01:00:02;52167.00;;;-145.37;82.94
13486;BME280;6815;59.336;17.998;2023-04-28T01:02:27;52171.00;;;-145.37;81.23
13486;BME280;6815;59.336;17.998;2023-04-28T01:04:55;52184.97;;;-145.37;83.10
13486;BME280;6815;59.336;17.998;2023-04-28T01:07:21;52192.97;;;-145.37;84.05
13486;BME280;6815;59.336;17.998;2023-04-28T01:09:46;52161.03;;;-145.37;83.69
13486;BME280;6815;59.336;17.998;2023-04-28T01:12:12;52177.00;;;-145.37;84.06
13486;BME280;6815;59.336;17.998;2023-04-28T01:14:38;52123.09;;;-145.37;84.65
13486;BME280;6815;59.336;17.998;2023-04-28T01:17:04;52182.97;;;-145.37;84.36
13486;BME280;6815;59.336;17.998;2023-04-28T01:19:29;52135.06;;;-145.37;84.43
13486;BME280;6815;59.336;17.998;2023-04-28T01:21:55;52173.00;;;-145.37;84.39
13486;BME280;6815;59.336;17.998;2023-04-28T01:24:20;52177.00;;;-145.37;84.58
13486;BME280;6815;59.336;17.998;2023-04-28T01:26:46;52145.03;;;-145.37;83.04
13486;BME280;6815;59.336;17.998;2023-04-28T01:29:11;52143.06;;;-145.37;83.76
13486;BME280;6815;59.336;17.998;2023-04-28T01:31:37;52155.03;;;-145.37;84.95
13486;BME280;6815;59.336;17.998;2023-04-28T01:34:03;52145.03;;;-145.37;85.18
13486;BME280;6815;59.336;17.998;2023-04-28T01:36:29;52171.00;;;-145.37;85.01
13486;BME280;6815;59.336;17.998;2023-04-28T01:38:54;52173.00;;;-145.37;85.91
13486;BME280;6815;59.336;17.998;2023-04-28T01:41:20;52149.03;;;-145.37;85.57
13486;BME280;6815;59.336;17.998;2023-04-28T01:43:47;52165.00;;;-145.37;85.51
13486;BME280;6815;59.336;17.998;2023-04-28T01:46:13;52141.06;;;-145.37;85.35
13486;BME280;6815;59.336;17.998;2023-04-28T01:48:38;52182.97;;;-145.37;86.14
13486;BME280;6815;59.336;17.998;2023-04-28T01:51:04;52119.09;;;-145.37;85.12
13486;BME280;6815;59.336;17.998;2023-04-28T01:53:31;52171.00;;;-145.37;85.78
13486;BME280;6815;59.336;17.998;2023-04-28T01:55:56;52147.03;;;-145.37;84.48
13486;BME280;6815;59.336;17.998;2023-04-28T01:58:23;52204.94;;;-145.37;85.20
13486;BME280;6815;59.336;17.998;2023-04-28T02:00:48;52161.03;;;-145.37;84.99
13486;BME280;6815;59.336;17.998;2023-04-28T02:03:14;52192.97;;;-145.37;84.87
13486;BME280;6815;59.336;17.998;2023-04-28T02:05:39;52145.03;;;-145.37;84.40
13486;BME280;6815;59.336;17.998;2023-04-28T02:08:05;52163.00;;;-145.37;84.45
13486;BME280;6815;59.336;17.998;2023-04-28T02:10:30;52133.06;;;-145.37;84.85
13486;BME280;6815;59.336;17.998;2023-04-28T02:12:56;52165.00;;;-145.37;84.32
13486;BME280;6815;59.336;17.998;2023-04-28T02:15:22;52147.03;;;-145.37;82.93
13486;BME280;6815;59.336;17.998;2023-04-28T02:17:47;52141.06;;;-145.37;84.56
13486;BME280;6815;59.336;17.998;2023-04-28T02:20:13;52175.00;;;-145.37;84.83
13486;BME280;6815;59.336;17.998;2023-04-28T02:22:40;52169.00;;;-145.37;85.05
13486;BME280;6815;59.336;17.998;2023-04-28T02:25:06;52175.00;;;-145.37;84.41
13486;BME280;6815;59.336;17.998;2023-04-28T02:27:33;52149.03;;;-145.37;84.00
13486;BME280;6815;59.336;17.998;2023-04-28T02:29:59;52198.94;;;-145.37;84.79
13486;BME280;6815;59.336;17.998;2023-04-28T02:32:24;52149.03;;;-145.37;84.59
13486;BME280;6815;59.336;17.998;2023-04-28T02:34:54;52175.00;;;-145.37;83.93
13486;BME280;6815;59.336;17.998;2023-04-28T02:37:20;52194.94;;;-145.37;84.76
13486;BME280;6815;59.336;17.998;2023-04-28T02:39:46;52184.97;;;-145.37;85.44
13486;BME280;6815;59.336;17.998;2023-04-28T02:42:11;52143.06;;;-145.37;84.74
13486;BME280;6815;59.336;17.998;2023-04-28T02:44:37;52178.97;;;-145.37;84.78
13486;BME280;6815;59.336;17.998;2023-04-28T02:47:02;52165.00;;;-145.37;84.90
13486;BME280;6815;59.336;17.998;2023-04-28T02:49:28;52186.97;;;-145.37;85.05
13486;BME280;6815;59.336;17.998;2023-04-28T02:51:53;52149.03;;;-145.37;85.26
13486;BME280;6815;59.336;17.998;2023-04-28T02:54:19;52186.97;;;-145.37;84.82
13486;BME280;6815;59.336;17.998;2023-04-28T02:56:54;52196.94;;;-145.37;84.82
13486;BME280;6815;59.336;17.998;2023-04-28T02:59:21;52123.09;;;-145.37;84.40
13486;BME280;6815;59.336;17.998;2023-04-28T03:01:46;52175.00;;;-145.37;85.04
13486;BME280;6815;59.336;17.998;2023-04-28T03:04:13;52165.00;;;-145.37;83.67
13486;BME280;6815;59.336;17.998;2023-04-28T03:06:39;52169.00;;;-145.37;83.57
13486;BME280;6815;59.336;17.998;2023-04-28T03:09:06;52182.97;;;-145.37;83.63
13486;BME280;6815;59.336;17.998;2023-04-28T03:11:32;52188.97;;;-145.37;82.75
13486;BME280;6815;59.336;17.998;2023-04-28T03:13:58;52177.00;;;-145.37;83.39
13486;BME280;6815;59.336;17.998;2023-04-28T03:16:23;52159.03;;;-145.37;83.60
13486;BME280;6815;59.336;17.998;2023-04-28T03:18:49;52192.97;;;-145.37;83.03
13486;BME280;6815;59.336;17.998;2023-04-28T03:21:14;52167.00;;;-145.37;83.18
13486;BME280;6815;59.336;17.998;2023-04-28T03:23:40;52216.91;;;-145.37;82.35
13486;BME280;6815;59.336;17.998;2023-04-28T03:26:05;52175.00;;;-145.37;83.00
13486;BME280;6815;59.336;17.998;2023-04-28T03:28:31;52137.06;;;-145.37;83.20
13486;BME280;6815;59.336;17.998;2023-04-28T03:30:57;52173.00;;;-145.37;82.11
13486;BME280;6815;59.336;17.998;2023-04-28T03:33:22;52155.03;;;-145.37;82.84
13486;BME280;6815;59.336;17.998;2023-04-28T03:35:48;52175.00;;;-145.37;82.26
13486;BME280;6815;59.336;17.998;2023-04-28T03:38:15;52167.00;;;-145.37;82.58
13486;BME280;6815;59.336;17.998;2023-04-28T03:40:40;52149.03;;;-145.37;81.98
13486;BME280;6815;59.336;17.998;2023-04-28T03:43:06;52182.97;;;-145.37;81.96
13486;BME280;6815;59.336;17.998;2023-04-28T03:45:31;52192.97;;;-145.37;83.06
13486;BME280;6815;59.336;17.998;2023-04-28T03:47:57;52194.94;;;-145.37;82.41
13486;BME280;6815;59.336;17.998;2023-04-28T03:50:22;52178.97;;;-145.37;82.94
13486;BME280;6815;59.336;17.998;2023-04-28T03:52:48;52178.97;;;-145.37;82.70
13486;BME280;6815;59.336;17.998;2023-04-28T03:55:13;52178.97;;;-145.37;82.76
13486;BME280;6815;59.336;17.998;2023-04-28T03:57:39;52196.94;;;-145.37;82.84
13486;BME280;6815;59.336;17.998;2023-04-28T04:00:05;52198.94;;;-145.37;82.44
13486;BME280;6815;59.336;17.998;2023-04-28T04:02:30;52182.97;;;-145.37;82.75
13486;BME280;6815;59.336;17.998;2023-04-28T04:04:56;52153.03;;;-145.37;82.02
13486;BME280;6815;59.336;17.998;2023-04-28T04:07:22;52145.03;;;-145.37;82.58
13486;BME280;6815;59.336;17.998;2023-04-28T04:09:47;52184.97;;;-145.37;82.73
13486;BME280;6815;59.336;17.998;2023-04-28T04:12:13;52184.97;;;-145.37;81.64
13486;BME280;6815;59.336;17.998;2023-04-28T04:14:38;52173.00;;;-145.37;82.02
13486;BME280;6815;59.336;17.998;2023-04-28T04:17:04;52171.00;;;-145.37;82.33
13486;BME280;6815;59.336;17.998;2023-04-28T04:19:32;52171.00;;;-145.37;82.17
13486;BME280;6815;59.336;17.998;2023-04-28T04:21:57;52171.00;;;-145.37;82.36
13486;BME280;6815;59.336;17.998;2023-04-28T04:24:22;52184.97;;;-145.37;82.56
13486;BME280;6815;59.336;17.998;2023-04-28T04:26:48;52135.06;;;-145.37;82.25
13486;BME280;6815;59.336;17.998;2023-04-28T04:29:13;52149.03;;;-145.37;82.35
13486;BME280;6815;59.336;17.998;2023-04-28T04:31:39;52145.03;;;-145.37;82.14
13486;BME280;6815;59.336;17.998;2023-04-28T04:34:05;52161.03;;;-145.37;81.55
13486;BME280;6815;59.336;17.998;2023-04-28T04:36:30;52175.00;;;-145.37;81.32
13486;BME280;6815;59.336;17.998;2023-04-28T04:38:57;52175.00;;;-145.37;81.57
13486;BME280;6815;59.336;17.998;2023-04-28T04:41:24;52188.97;;;-145.37;81.75
13486;BME280;6815;59.336;17.998;2023-04-28T04:43:50;52175.00;;;-145.37;81.96
13486;BME280;6815;59.336;17.998;2023-04-28T04:46:16;52180.97;;;-145.37;82.06
13486;BME280;6815;59.336;17.998;2023-04-28T04:48:41;52167.00;;;-145.37;82.27
13486;BME280;6815;59.336;17.998;2023-04-28T04:51:07;52182.97;;;-145.37;82.56
13486;BME280;6815;59.336;17.998;2023-04-28T04:53:33;52192.97;;;-145.37;82.98
13486;BME280;6815;59.336;17.998;2023-04-28T04:55:58;52157.03;;;-145.37;82.41
13486;BME280;6815;59.336;17.998;2023-04-28T04:58:24;52167.00;;;-145.37;83.39
13486;BME280;6815;59.336;17.998;2023-04-28T05:00:50;52178.97;;;-145.37;82.72
13486;BME280;6815;59.336;17.998;2023-04-28T05:03:15;52180.97;;;-145.37;82.46
13486;BME280;6815;59.336;17.998;2023-04-28T05:05:42;52143.06;;;-145.37;82.62
13486;BME280;6815;59.336;17.998;2023-04-28T05:08:10;52163.00;;;-145.37;82.61
13486;BME280;6815;59.336;17.998;2023-04-28T05:10:35;52155.03;;;-145.37;82.27
13486;BME280;6815;59.336;17.998;2023-04-28T05:13:01;52155.03;;;-145.37;82.41
13486;BME280;6815;59.336;17.998;2023-04-28T05:15:26;52125.09;;;-145.37;82.29
13486;BME280;6815;59.336;17.998;2023-04-28T05:17:52;52143.06;;;-145.37;83.20
13486;BME280;6815;59.336;17.998;2023-04-28T05:20:17;52161.03;;;-145.37;83.56
13486;BME280;6815;59.336;17.998;2023-04-28T05:22:43;52169.00;;;-145.37;83.23
13486;BME280;6815;59.336;17.998;2023-04-28T05:25:09;52145.03;;;-145.37;82.67
13486;BME280;6815;59.336;17.998;2023-04-28T05:27:34;52153.03;;;-145.37;83.06
13486;BME280;6815;59.336;17.998;2023-04-28T05:30:06;52153.03;;;-145.37;82.78
13486;BME280;6815;59.336;17.998;2023-04-28T05:32:33;52196.94;;;-145.37;83.05
13486;BME280;6815;59.336;17.998;2023-04-28T05:34:59;52147.03;;;-145.37;83.56
13486;BME280;6815;59.336;17.998;2023-04-28T05:37:25;52151.03;;;-145.37;82.87
13486;BME280;6815;59.336;17.998;2023-04-28T05:39:50;52163.00;;;-145.37;83.28
13486;BME280;6815;59.336;17.998;2023-04-28T05:42:16;52153.03;;;-145.37;81.77
13486;BME280;6815;59.336;17.998;2023-04-28T05:44:41;52169.00;;;-145.37;82.22
13486;BME280;6815;59.336;17.998;2023-04-28T05:47:07;52121.09;;;-145.37;82.16
13486;BME280;6815;59.336;17.998;2023-04-28T05:49:33;52167.00;;;-145.37;81.40
13486;BME280;6815;59.336;17.998;2023-04-28T05:51:58;52159.03;;;-145.37;81.48
13486;BME280;6815;59.336;17.998;2023-04-28T05:54:24;52169.00;;;-145.37;81.79
13486;BME280;6815;59.336;17.998;2023-04-28T05:56:49;52186.97;;;-145.37;81.69
13486;BME280;6815;59.336;17.998;2023-04-28T05:59:15;52184.97;;;-145.37;81.83
13486;BME280;6815;59.336;17.998;2023-04-28T06:01:41;52165.00;;;-145.37;81.60
13486;BME280;6815;59.336;17.998;2023-04-28T06:04:06;52196.94;;;-145.37;80.73
13486;BME280;6815;59.336;17.998;2023-04-28T06:06:32;52196.94;;;-145.37;80.85
13486;BME280;6815;59.336;17.998;2023-04-28T06:08:58;52175.00;;;-145.37;80.97
13486;BME280;6815;59.336;17.998;2023-04-28T06:11:23;52157.03;;;-145.37;80.58
13486;BME280;6815;59.336;17.998;2023-04-28T06:13:49;52194.94;;;-145.37;78.93
13486;BME280;6815;59.336;17.998;2023-04-28T06:16:15;52155.03;;;-145.37;78.05
13486;BME280;6815;59.336;17.998;2023-04-28T06:18:41;52133.06;;;-145.37;78.53
13486;BME280;6815;59.336;17.998;2023-04-28T06:21:07;52163.00;;;-145.37;77.41
13486;BME280;6815;59.336;17.998;2023-04-28T06:23:32;52151.03;;;-145.37;77.73
13486;BME280;6815;59.336;17.998;2023-04-28T06:25:59;52190.97;;;-145.37;78.13
13486;BME280;6815;59.336;17.998;2023-04-28T06:28:26;52169.00;;;-145.37;78.48
13486;BME280;6815;59.336;17.998;2023-04-28T06:30:52;52169.00;;;-145.37;78.18
13486;BME280;6815;59.336;17.998;2023-04-28T06:33:17;52228.88;;;-145.37;77.81
13486;BME280;6815;59.336;17.998;2023-04-28T06:35:43;52180.97;;;-145.37;77.62
13486;BME280;6815;59.336;17.998;2023-04-28T06:38:08;52135.06;;;-145.37;77.51
13486;BME280;6815;59.336;17.998;2023-04-28T06:40:33;52171.00;;;-145.37;77.40
13486;BME280;6815;59.336;17.998;2023-04-28T06:42:59;52182.97;;;-145.37;77.17
13486;BME280;6815;59.336;17.998;2023-04-28T06:45:25;52180.97;;;-145.37;77.06
13486;BME280;6815;59.336;17.998;2023-04-28T06:47:51;52173.00;;;-145.37;76.99
13486;BME280;6815;59.336;17.998;2023-04-28T06:50:20;52143.06;;;-145.37;77.61
13486;BME280;6815;59.336;17.998;2023-04-28T06:52:45;52157.03;;;-145.37;78.43
13486;BME280;6815;59.336;17.998;2023-04-28T06:55:17;52149.03;;;-145.37;78.03
13486;BME280;6815;59.336;17.998;2023-04-28T06:57:43;52206.94;;;-145.37;77.61
13486;BME280;6815;59.336;17.998;2023-04-28T07:00:10;52175.00;;;-145.37;77.85
13486;BME280;6815;59.336;17.998;2023-04-28T07:02:36;52190.97;;;-145.37;77.32
13486;BME280;6815;59.336;17.998;2023-04-28T07:05:02;52153.03;;;-145.37;77.17
13486;BME280;6815;59.336;17.998;2023-04-28T07:07:32;52157.03;;;-145.37;77.62
13486;BME280;6815;59.336;17.998;2023-04-28T07:09:58;52157.03;;;-145.37;76.89
13486;BME280;6815;59.336;17.998;2023-04-28T07:12:25;52177.00;;;-145.37;76.77
13486;BME280;6815;59.336;17.998;2023-04-28T07:14:50;52165.00;;;-145.37;76.08
13486;BME280;6815;59.336;17.998;2023-04-28T07:17:16;52157.03;;;-145.37;76.61
13486;BME280;6815;59.336;17.998;2023-04-28T07:19:41;52190.97;;;-145.37;76.85
13486;BME280;6815;59.336;17.998;2023-04-28T07:22:07;52188.97;;;-145.37;76.03
13486;BME280;6815;59.336;17.998;2023-04-28T07:24:32;52177.00;;;-145.37;75.46
13486;BME280;6815;59.336;17.998;2023-04-28T07:26:58;52173.00;;;-145.37;74.82
13486;BME280;6815;59.336;17.998;2023-04-28T07:29:24;52173.00;;;-145.37;73.62
13486;BME280;6815;59.336;17.998;2023-04-28T07:31:54;52200.94;;;-145.37;73.28
13486;BME280;6815;59.336;17.998;2023-04-28T07:34:20;52177.00;;;-145.37;73.89
13486;BME280;6815;59.336;17.998;2023-04-28T07:36:46;52184.97;;;-145.37;73.44
13486;BME280;6815;59.336;17.998;2023-04-28T07:39:13;52184.97;;;-145.37;73.19
13486;BME280;6815;59.336;17.998;2023-04-28T07:41:39;52186.97;;;-145.37;73.19
13486;BME280;6815;59.336;17.998;2023-04-28T07:44:05;52163.00;;;-145.37;73.05
13486;BME280;6815;59.336;17.998;2023-04-28T07:46:32;52224.91;;;-145.37;73.53
13486;BME280;6815;59.336;17.998;2023-04-28T07:48:58;52180.97;;;-145.37;74.30
13486;BME280;6815;59.336;17.998;2023-04-28T07:51:23;52188.97;;;-145.37;74.68
13486;BME280;6815;59.336;17.998;2023-04-28T07:53:51;52163.00;;;-145.37;74.14
13486;BME280;6815;59.336;17.998;2023-04-28T07:56:17;52163.00;;;-145.37;74.51
13486;BME280;6815;59.336;17.998;2023-04-28T07:58:43;52192.97;;;-145.37;74.74
13486;BME280;6815;59.336;17.998;2023-04-28T08:01:08;52180.97;;;-145.37;73.81
13486;BME280;6815;59.336;17.998;2023-04-28T08:03:34;52169.00;;;-145.37;74.14
13486;BME280;6815;59.336;17.998;2023-04-28T08:05:59;52188.97;;;-145.37;72.94
13486;BME280;6815;59.336;17.998;2023-04-28T08:08:26;52161.03;;;-145.37;73.45
13486;BME280;6815;59.336;17.998;2023-04-28T08:10:51;52153.03;;;-145.37;73.58
13486;BME280;6815;59.336;17.998;2023-04-28T08:13:17;52159.03;;;-145.37;73.88
13486;BME280;6815;59.336;17.998;2023-04-28T08:15:42;52194.94;;;-145.37;74.39
13486;BME280;6815;59.336;17.998;2023-04-28T08:18:08;52135.06;;;-145.37;73.75
13486;BME280;6815;59.336;17.998;2023-04-28T08:20:33;52165.00;;;-145.37;73.86
13486;BME280;6815;59.336;17.998;2023-04-28T08:22:59;52180.97;;;-145.37;74.11
13486;BME280;6815;59.336;17.998;2023-04-28T08:25:25;52196.94;;;-145.37;73.74
13486;BME280;6815;59.336;17.998;2023-04-28T08:27:51;52167.00;;;-145.37;73.93
13486;BME280;6815;59.336;17.998;2023-04-28T08:30:16;52178.97;;;-145.37;74.88
13486;BME280;6815;59.336;17.998;2023-04-28T08:32:42;52177.00;;;-145.37;73.92
13486;BME280;6815;59.336;17.998;2023-04-28T08:35:08;52165.00;;;-145.37;73.25
13486;BME280;6815;59.336;17.998;2023-04-28T08:37:33;52157.03;;;-145.37;72.85
13486;BME280;6815;59.336;17.998;2023-04-28T08:40:00;52180.97;;;-145.37;72.95
13486;BME280;6815;59.336;17.998;2023-04-28T08:42:36;52192.97;;;-145.37;72.42
13486;BME280;6815;59.336;17.998;2023-04-28T08:45:03;52178.97;;;-145.37;72.36
13486;BME280;6815;59.336;17.998;2023-04-28T08:47:33;52188.97;;;-145.37;72.33
13486;BME280;6815;59.336;17.998;2023-04-28T08:50:06;52143.06;;;-145.37;72.00
13486;BME280;6815;59.336;17.998;2023-04-28T08:52:33;52161.03;;;-145.37;71.68
13486;BME280;6815;59.336;17.998;2023-04-28T08:55:04;52151.03;;;-145.37;70.92
13486;BME280;6815;59.336;17.998;2023-04-28T08:57:44;52202.94;;;-145.37;70.32
13486;BME280;6815;59.336;17.998;2023-04-28T09:00:11;52178.97;;;-145.37;70.68
13486;BME280;6815;59.336;17.998;2023-04-28T09:02:37;52188.97;;;-145.37;69.41
13486;BME280;6815;59.336;17.998;2023-04-28T09:05:07;52182.97;;;-145.37;69.03
13486;BME280;6815;59.336;17.998;2023-04-28T09:07:33;52177.00;;;-145.37;68.65
13486;BME280;6815;59.336;17.998;2023-04-28T09:10:19;52169.00;;;-145.37;69.21
13486;BME280;6815;59.336;17.998;2023-04-28T09:12:46;52186.97;;;-145.37;68.31
13486;BME280;6815;59.336;17.998;2023-04-28T09:15:33;52175.00;;;-145.37;68.04
13486;BME280;6815;59.336;17.998;2023-04-28T09:18:00;52180.97;;;-145.37;68.60
13486;BME280;6815;59.336;17.998;2023-04-28T09:20:27;52212.91;;;-145.37;68.85
13486;BME280;6815;59.336;17.998;2023-04-28T09:22:54;52204.94;;;-145.37;67.62
13486;BME280;6815;59.336;17.998;2023-04-28T09:25:22;52178.97;;;-145.37;66.82
13486;BME280;6815;59.336;17.998;2023-04-28T09:27:49;52206.94;;;-145.37;66.19
13486;BME280;6815;59.336;17.998;2023-04-28T09:30:15;52194.94;;;-145.37;65.40
13486;BME280;6815;59.336;17.998;2023-04-28T09:32:40;52153.03;;;-145.37;66.00
13486;BME280;6815;59.336;17.998;2023-04-28T09:35:06;52167.00;;;-145.37;64.73
13486;BME280;6815;59.336;17.998;2023-04-28T09:37:33;52161.03;;;-145.37;64.25
13486;BME280;6815;59.336;17.998;2023-04-28T09:44:56;52188.97;;;-145.37;64.61
13486;BME280;6815;59.336;17.998;2023-04-28T09:47:22;52167.00;;;-145.37;64.14
13486;BME280;6815;59.336;17.998;2023-04-28T09:49:57;52184.97;;;-145.37;64.17
13486;BME280;6815;59.336;17.998;2023-04-28T09:52:24;52206.94;;;-145.37;63.94
13486;BME280;6815;59.336;17.998;2023-04-28T09:54:51;52178.97;;;-145.37;63.58
13486;BME280;6815;59.336;17.998;2023-04-28T09:57:17;52157.03;;;-145.37;62.95
13486;BME280;6815;59.336;17.998;2023-04-28T09:59:46;52216.91;;;-145.37;61.99
13486;BME280;6815;59.336;17.998;2023-04-28T10:02:16;52167.00;;;-145.37;62.04
13486;BME280;6815;59.336;17.998;2023-04-28T10:04:47;52182.97;;;-145.37;59.99
13486;BME280;6815;59.336;17.998;2023-04-28T10:07:15;52202.94;;;-145.37;59.63
13486;BME280;6815;59.336;17.998;2023-04-28T10:09:45;52200.94;;;-145.37;59.94
13486;BME280;6815;59.336;17.998;2023-04-28T10:12:23;52153.03;;;-145.37;59.64
13486;BME280;6815;59.336;17.998;2023-04-28T10:14:50;52218.91;;;-145.37;59.67
13486;BME280;6815;59.336;17.998;2023-04-28T10:17:20;52222.91;;;-145.37;59.39
13486;BME280;6815;59.336;17.998;2023-04-28T10:19:48;52194.94;;;-145.37;58.76
13486;BME280;6815;59.336;17.998;2023-04-28T10:27:37;52186.97;;;-145.37;58.91
13486;BME280;6815;59.336;17.998;2023-04-28T10:32:40;52204.94;;;-145.37;58.92
13486;BME280;6815;59.336;17.998;2023-04-28T10:38:05;52171.00;;;-145.37;57.22
13486;BME280;6815;59.336;17.998;2023-04-28T10:40:32;52202.94;;;-145.37;55.08
13486;BME280;6815;59.336;17.998;2023-04-28T10:42:58;52186.97;;;-145.37;53.86
13486;BME280;6815;59.336;17.998;2023-04-28T10:56:25;52184.97;;;-145.37;53.11
13486;BME280;6815;59.336;17.998;2023-04-28T10:58:55;52180.97;;;-145.37;53.90
13486;BME280;6815;59.336;17.998;2023-04-28T11:03:59;52173.00;;;-145.37;53.23
13486;BME280;6815;59.336;17.998;2023-04-28T11:06:37;52180.97;;;-145.37;52.39
13486;BME280;6815;59.336;17.998;2023-04-28T11:16:57;52198.94;;;-145.37;50.14
13486;BME280;6815;59.336;17.998;2023-04-28T11:19:32;52143.06;;;-145.37;50.81
13486;BME280;6815;59.336;17.998;2023-04-28T11:22:00;52192.97;;;-145.37;49.60
13486;BME280;6815;59.336;17.998;2023-04-28T11:24:27;52218.91;;;-145.37;50.28
13486;BME280;6815;59.336;17.998;2023-04-28T11:26:54;52184.97;;;-145.37;51.18
13486;BME280;6815;59.336;17.998;2023-04-28T11:29:37;52173.00;;;-145.37;49.87
13486;BME280;6815;59.336;17.998;2023-04-28T11:32:04;52161.03;;;-145.37;49.48
13486;BME280;6815;59.336;17.998;2023-04-28T11:34:31;52210.91;;;-145.37;49.82
13486;BME280;6815;59.336;17.998;2023-04-28T11:36:57;52177.00;;;-145.37;50.83
13486;BME280;6815;59.336;17.998;2023-04-28T11:39:30;52190.97;;;-145.37;50.31
13486;BME280;6815;59.336;17.998;2023-04-28T11:42:16;52202.94;;;-145.37;49.98
13486;BME280;6815;59.336;17.998;2023-04-28T11:44:53;52202.94;;;-145.37;49.69
13486;BME280;6815;59.336;17.998;2023-04-28T11:47:48;52204.94;;;-145.37;49.31
13486;BME280;6815;59.336;17.998;2023-04-28T11:50:13;52161.03;;;-145.37;48.87
13486;BME280;6815;59.336;17.998;2023-04-28T11:52:49;52198.94;;;-145.37;47.79
13486;BME280;6815;59.336;17.998;2023-04-28T11:55:15;52184.97;;;-145.37;46.44
13486;BME280;6815;59.336;17.998;2023-04-28T11:57:41;52200.94;;;-145.37;46.12
13486;BME280;6815;59.336;17.998;2023-04-28T12:00:13;52200.94;;;-145.37;46.18
13486;BME280;6815;59.336;17.998;2023-04-28T12:02:43;52234.88;;;-145.37;46.18
13486;BME280;6815;59.336;17.998;2023-04-28T12:05:09;52180.97;;;-145.37;46.72
13486;BME280;6815;59.336;17.998;2023-04-28T12:07:40;52178.97;;;-145.37;46.83
13486;BME280;6815;59.336;17.998;2023-04-28T12:12:36;52208.94;;;-145.37;46.90
13486;BME280;6815;59.336;17.998;2023-04-28T12:15:05;52188.97;;;-145.37;46.62
13486;BME280;6815;59.336;17.998;2023-04-28T12:17:36;52173.00;;;-145.37;46.79
13486;BME280;6815;59.336;17.998;2023-04-28T12:20:05;52192.97;;;-145.37;46.38
13486;BME280;6815;59.336;17.998;2023-04-28T12:22:49;52188.97;;;-145.37;46.40
13486;BME280;6815;59.336;17.998;2023-04-28T12:25:17;52167.00;;;-145.37;46.85
13486;BME280;6815;59.336;17.998;2023-04-28T12:28:03;52169.00;;;-145.37;46.54
13486;BME280;6815;59.336;17.998;2023-04-28T12:30:31;52157.03;;;-145.37;46.22
13486;BME280;6815;59.336;17.998;2023-04-28T12:32:57;52133.06;;;-145.37;45.50
13486;BME280;6815;59.336;17.998;2023-04-28T12:35:27;52180.97;;;-145.37;45.67
13486;BME280;6815;59.336;17.998;2023-04-28T12:37:53;52175.00;;;-145.37;46.24
13486;BME280;6815;59.336;17.998;2023-04-28T12:40:20;52198.94;;;-145.37;46.94
13486;BME280;6815;59.336;17.998;2023-04-28T12:42:46;52184.97;;;-145.37;46.02
13486;BME280;6815;59.336;17.998;2023-04-28T12:45:11;52175.00;;;-145.37;45.78
13486;BME280;6815;59.336;17.998;2023-04-28T12:47:37;52226.91;;;-145.37;45.68
13486;BME280;6815;59.336;17.998;2023-04-28T12:50:04;52214.91;;;-145.37;46.34
13486;BME280;6815;59.336;17.998;2023-04-28T12:52:30;52198.94;;;-145.37;46.00
13486;BME280;6815;59.336;17.998;2023-04-28T12:54:59;52220.91;;;-145.37;45.96
13486;BME280;6815;59.336;17.998;2023-04-28T12:57:24;52188.97;;;-145.37;45.08
13486;BME280;6815;59.336;17.998;2023-04-28T12:59:50;52200.94;;;-145.37;45.67
13486;BME280;6815;59.336;17.998;2023-04-28T13:02:17;52171.00;;;-145.37;45.12
13486;BME280;6815;59.336;17.998;2023-04-28T13:04:42;52214.91;;;-145.37;44.19
13486;BME280;6815;59.336;17.998;2023-04-28T13:07:10;52177.00;;;-145.37;44.13
13486;BME280;6815;59.336;17.998;2023-04-28T13:09:36;52182.97;;;-145.37;42.57
13486;BME280;6815;59.336;17.998;2023-04-28T13:12:02;52214.91;;;-145.37;41.48
13486;BME280;6815;59.336;17.998;2023-04-28T13:14:28;52200.94;;;-145.37;41.46
13486;BME280;6815;59.336;17.998;2023-04-28T13:16:54;52178.97;;;-145.37;40.85
13486;BME280;6815;59.336;17.998;2023-04-28T13:19:19;52186.97;;;-145.37;40.79